createdAt,value
2024-02-29T00:00:10.453Z,1018.25
2024-02-29T00:01:10.202Z,1018.20
2024-02-29T00:02:10.050Z,1018.19
2024-02-29T00:03:10.267Z,1018.19
2024-02-29T00:04:10.028Z,1018.19
2024-02-29T00:05:10.224Z,1018.14
2024-02-29T00:06:09.900Z,1018.11
2024-02-29T00:07:09.902Z,1018.11
2024-02-29T00:08:09.815Z,1018.04
2024-02-29T00:09:09.778Z,1018.06
2024-02-29T00:10:10.513Z,1018.07
2024-02-29T00:11:09.784Z,1018.05
2024-02-29T00:12:09.667Z,1018.08
2024-02-29T00:13:09.684Z,1018.12
2024-02-29T00:14:09.580Z,1018.13
2024-02-29T00:15:09.834Z,1018.16
2024-02-29T00:16:09.539Z,1018.15
2024-02-29T00:17:09.463Z,1018.18
2024-02-29T00:18:09.460Z,1018.12
2024-02-29T00:19:09.434Z,1018.15
2024-02-29T00:20:09.616Z,1018.12
2024-02-29T00:21:09.306Z,1018.11
2024-02-29T00:22:09.366Z,1018.10
2024-02-29T00:23:09.234Z,1018.10
2024-02-29T00:24:09.203Z,1018.07
2024-02-29T00:25:09.483Z,1018.04
2024-02-29T00:26:09.121Z,1018.08
2024-02-29T00:27:09.109Z,1018.08
2024-02-29T00:28:09.089Z,1018.03
2024-02-29T00:29:09.975Z,1018.03
2024-02-29T00:30:09.235Z,1018.00
2024-02-29T00:31:08.973Z,1017.98
2024-02-29T00:32:08.864Z,1017.94
2024-02-29T00:33:08.906Z,1017.93
2024-02-29T00:34:08.859Z,1017.95
2024-02-29T00:35:09.036Z,1017.97
2024-02-29T00:36:10.219Z,1017.94
2024-02-29T00:37:08.773Z,1017.99
2024-02-29T00:38:08.635Z,1017.96
2024-02-29T00:39:14.393Z,1018.00
2024-02-29T00:40:08.880Z,1017.99
2024-02-29T00:41:08.510Z,1017.97
2024-02-29T00:42:08.477Z,1018.00
2024-02-29T00:43:08.505Z,1017.97
2024-02-29T00:44:08.407Z,1017.96
2024-02-29T00:45:08.653Z,1017.98
2024-02-29T00:46:08.392Z,1018.03
2024-02-29T00:47:08.279Z,1018.02
2024-02-29T00:48:08.290Z,1018.03
2024-02-29T00:49:08.559Z,1018.01
2024-02-29T00:50:08.467Z,1018.04
2024-02-29T00:51:08.125Z,1018.03
2024-02-29T00:52:08.156Z,1018.04
2024-02-29T00:53:08.074Z,1018.05
2024-02-29T00:54:08.001Z,1018.02
2024-02-29T00:55:08.378Z,1018.06
2024-02-29T00:56:07.927Z,1018.03
2024-02-29T00:57:07.958Z,1018.01
2024-02-29T00:58:07.863Z,1018.03
2024-02-29T00:59:07.804Z,1018.04
2024-02-29T01:00:08.051Z,1018.01
2024-02-29T01:01:07.792Z,1018.04
2024-02-29T01:02:07.738Z,1018.03
2024-02-29T01:03:07.643Z,1017.95
2024-02-29T01:04:07.871Z,1017.98
2024-02-29T01:05:07.901Z,1017.95
2024-02-29T01:06:07.532Z,1017.96
2024-02-29T01:07:07.531Z,1017.92
2024-02-29T01:08:07.451Z,1017.95
2024-02-29T01:09:07.409Z,1017.94
2024-02-29T01:10:07.723Z,1017.95
2024-02-29T01:11:07.384Z,1017.95
2024-02-29T01:12:07.300Z,1017.94
2024-02-29T01:13:07.304Z,1017.94
2024-02-29T01:14:07.211Z,1017.92
2024-02-29T01:15:08.418Z,1017.92
2024-02-29T01:16:07.214Z,1017.88
2024-02-29T01:17:07.092Z,1017.88
2024-02-29T01:18:07.260Z,1017.81
2024-02-29T01:19:07.190Z,1017.77
2024-02-29T01:20:07.268Z,1017.71
2024-02-29T01:21:06.934Z,1017.73
2024-02-29T01:22:06.972Z,1017.70
2024-02-29T01:23:06.856Z,1017.70
2024-02-29T01:24:06.844Z,1017.71
2024-02-29T01:25:07.186Z,1017.69
2024-02-29T01:26:06.777Z,1017.71
2024-02-29T01:27:06.696Z,1017.76
2024-02-29T01:28:06.717Z,1017.74
2024-02-29T01:29:06.616Z,1017.71
2024-02-29T01:30:06.861Z,1017.71
2024-02-29T01:31:06.673Z,1017.69
2024-02-29T01:32:15.544Z,1017.67
2024-02-29T01:33:06.508Z,1017.71
2024-02-29T01:34:06.463Z,1017.70
2024-02-29T01:35:06.687Z,1017.68
2024-02-29T01:36:06.346Z,1017.68
2024-02-29T01:37:06.332Z,1017.70
2024-02-29T01:38:06.261Z,1017.66
2024-02-29T01:39:06.236Z,1017.68
2024-02-29T01:40:06.535Z,1017.65
2024-02-29T01:41:06.144Z,1017.61
2024-02-29T01:42:06.104Z,1017.65
2024-02-29T01:43:06.087Z,1017.61
2024-02-29T01:44:06.025Z,1017.58
2024-02-29T01:45:06.258Z,1017.52
2024-02-29T01:46:05.991Z,1017.48
2024-02-29T01:47:05.933Z,1017.50
2024-02-29T01:48:05.927Z,1017.50
2024-02-29T01:49:05.905Z,1017.48
2024-02-29T01:50:06.171Z,1017.50
2024-02-29T01:51:05.745Z,1017.48
2024-02-29T01:52:05.744Z,1017.48
2024-02-29T01:53:05.675Z,1017.47
2024-02-29T01:54:05.639Z,1017.43
2024-02-29T01:55:06.559Z,1017.40
2024-02-29T01:56:05.559Z,1017.40
2024-02-29T01:57:05.525Z,1017.45
2024-02-29T01:58:05.513Z,1017.43
2024-02-29T01:59:05.431Z,1017.43
2024-02-29T02:00:05.668Z,1017.40
2024-02-29T02:01:05.420Z,1017.38
2024-02-29T02:02:05.382Z,1017.35
2024-02-29T02:03:05.265Z,1017.31
2024-02-29T02:04:05.265Z,1017.32
2024-02-29T02:05:05.476Z,1017.28
2024-02-29T02:06:05.146Z,1017.27
2024-02-29T02:07:05.172Z,1017.29
2024-02-29T02:08:05.078Z,1017.34
2024-02-29T02:09:05.039Z,1017.35
2024-02-29T02:10:05.275Z,1017.31
2024-02-29T02:11:05.023Z,1017.29
2024-02-29T02:12:04.917Z,1017.24
2024-02-29T02:13:04.897Z,1017.23
2024-02-29T02:14:04.830Z,1017.21
2024-02-29T02:15:05.093Z,1017.17
2024-02-29T02:16:04.782Z,1017.16
2024-02-29T02:17:04.752Z,1017.16
2024-02-29T02:18:04.706Z,1017.13
2024-02-29T02:19:04.648Z,1017.11
2024-02-29T02:20:04.874Z,1017.05
2024-02-29T02:21:04.562Z,1017.04
2024-02-29T02:22:04.642Z,1016.99
2024-02-29T02:23:04.488Z,1017.02
2024-02-29T02:24:04.446Z,1017.04
2024-02-29T02:25:04.767Z,1017.00
2024-02-29T02:26:04.361Z,1016.98
2024-02-29T02:27:04.333Z,1016.94
2024-02-29T02:28:04.300Z,1016.94
2024-02-29T02:29:04.234Z,1016.98
2024-02-29T02:30:04.472Z,1016.98
2024-02-29T02:31:04.203Z,1016.96
2024-02-29T02:32:04.124Z,1016.87
2024-02-29T02:33:04.192Z,1016.81
2024-02-29T02:34:04.395Z,1016.80
2024-02-29T02:35:03.999Z,1016.80
2024-02-29T02:36:03.956Z,1016.83
2024-02-29T02:37:03.983Z,1016.81
2024-02-29T02:38:03.881Z,1016.78
2024-02-29T02:39:03.912Z,1016.78
2024-02-29T02:40:04.133Z,1016.77
2024-02-29T02:41:03.756Z,1016.70
2024-02-29T02:42:03.727Z,1016.68
2024-02-29T02:43:03.744Z,1016.65
2024-02-29T02:44:03.920Z,1016.63
2024-02-29T02:45:03.612Z,1016.59
2024-02-29T02:46:03.685Z,1016.56
2024-02-29T02:47:04.473Z,1016.61
2024-02-29T02:48:03.535Z,1016.58
2024-02-29T02:49:03.805Z,1016.52
2024-02-29T02:50:03.427Z,1016.49
2024-02-29T02:51:03.445Z,1016.51
2024-02-29T02:52:03.372Z,1016.51
2024-02-29T02:53:03.279Z,1016.51
2024-02-29T02:54:03.624Z,1016.55
2024-02-29T02:55:03.287Z,1016.59
2024-02-29T02:56:03.160Z,1016.57
2024-02-29T02:57:03.122Z,1016.55
2024-02-29T02:58:03.146Z,1016.56
2024-02-29T02:59:03.039Z,1016.56
2024-02-29T03:00:03.290Z,1016.59
2024-02-29T03:01:03.046Z,1016.60
2024-02-29T03:02:03.000Z,1016.59
2024-02-29T03:03:02.888Z,1016.59
2024-02-29T03:04:03.156Z,1016.59
2024-02-29T03:05:02.808Z,1016.57
2024-02-29T03:06:02.775Z,1016.64
2024-02-29T03:07:02.799Z,1016.62
2024-02-29T03:08:02.685Z,1016.60
2024-02-29T03:09:02.669Z,1016.61
2024-02-29T03:10:03.022Z,1016.58
2024-02-29T03:11:02.588Z,1016.60
2024-02-29T03:12:02.529Z,1016.59
2024-02-29T03:13:02.589Z,1016.57
2024-02-29T03:14:02.720Z,1016.54
2024-02-29T03:15:02.687Z,1016.54
2024-02-29T03:16:02.474Z,1016.54
2024-02-29T03:17:02.324Z,1016.57
2024-02-29T03:18:02.362Z,1016.52
2024-02-29T03:19:02.550Z,1016.54
2024-02-29T03:20:02.266Z,1016.51
2024-02-29T03:21:02.162Z,1016.49
2024-02-29T03:22:02.213Z,1016.46
2024-02-29T03:23:02.111Z,1016.46
2024-02-29T03:24:02.355Z,1016.41
2024-02-29T03:25:02.072Z,1016.42
2024-02-29T03:26:01.975Z,1016.41
2024-02-29T03:27:01.917Z,1016.35
2024-02-29T03:28:01.941Z,1016.38
2024-02-29T03:29:02.149Z,1016.40
2024-02-29T03:30:01.808Z,1016.38
2024-02-29T03:31:01.834Z,1016.36
2024-02-29T03:32:01.738Z,1016.34
2024-02-29T03:33:01.726Z,1016.33
2024-02-29T03:34:02.011Z,1016.30
2024-02-29T03:35:09.492Z,1016.32
2024-02-29T03:36:01.573Z,1016.31
2024-02-29T03:37:01.613Z,1016.28
2024-02-29T03:38:01.767Z,1016.28
2024-02-29T03:39:01.447Z,1016.26
2024-02-29T03:40:01.478Z,1016.24
2024-02-29T03:41:01.371Z,1016.24
2024-02-29T03:42:01.340Z,1016.22
2024-02-29T03:43:01.346Z,1016.27
2024-02-29T03:44:01.305Z,1016.25
2024-02-29T03:45:01.218Z,1016.24
2024-02-29T03:46:01.182Z,1016.22
2024-02-29T03:47:01.145Z,1016.20
2024-02-29T03:48:01.163Z,1016.20
2024-02-29T03:49:01.141Z,1016.19
2024-02-29T03:50:01.005Z,1016.18
2024-02-29T03:51:00.967Z,1016.18
2024-02-29T03:52:00.980Z,1016.18
2024-02-29T03:53:01.166Z,1016.19
2024-02-29T03:54:00.848Z,1016.15
2024-02-29T03:55:00.910Z,1016.12
2024-02-29T03:56:00.771Z,1016.11
2024-02-29T03:57:00.730Z,1016.11
2024-02-29T03:58:01.175Z,1016.10
2024-02-29T03:59:00.655Z,1016.05
2024-02-29T04:00:00.600Z,1016.09
2024-02-29T04:01:00.624Z,1016.12
2024-02-29T04:02:00.614Z,1016.10
2024-02-29T04:03:00.518Z,1016.12
2024-02-29T04:04:00.755Z,1016.13
2024-02-29T04:05:00.437Z,1016.15
2024-02-29T04:06:00.398Z,1016.16
2024-02-29T04:07:00.344Z,1016.16
2024-02-29T04:08:00.575Z,1016.12
2024-02-29T04:09:00.245Z,1016.12
2024-02-29T04:10:00.346Z,1016.08
2024-02-29T04:11:00.180Z,1016.03
2024-02-29T04:12:00.159Z,1016.06
2024-02-29T04:13:00.378Z,1016.06
2024-02-29T04:14:00.053Z,1016.07
2024-02-29T04:15:00.001Z,1016.10
2024-02-29T04:15:59.981Z,1016.06
2024-02-29T04:17:00.198Z,1016.09
2024-02-29T04:18:00.129Z,1016.04
2024-02-29T04:18:59.852Z,1016.04
2024-02-29T04:19:59.838Z,1016.02
2024-02-29T04:20:59.770Z,1016.04
2024-02-29T04:22:00.073Z,1015.98
2024-02-29T04:22:59.690Z,1016.01
2024-02-29T04:23:59.643Z,1015.97
2024-02-29T04:24:59.666Z,1015.96
2024-02-29T04:25:59.564Z,1015.97
2024-02-29T04:26:59.802Z,1015.96
2024-02-29T04:27:59.644Z,1015.96
2024-02-29T04:28:59.453Z,1015.94
2024-02-29T04:29:59.404Z,1015.92
2024-02-29T04:30:59.417Z,1015.89
2024-02-29T04:31:59.607Z,1015.89
2024-02-29T04:32:59.364Z,1015.85
2024-02-29T04:33:59.347Z,1015.88
2024-02-29T04:34:59.203Z,1015.90
2024-02-29T04:35:59.782Z,1015.90
2024-02-29T04:36:59.160Z,1015.91
2024-02-29T04:37:59.108Z,1015.91
2024-02-29T04:38:59.052Z,1015.89
2024-02-29T04:39:59.032Z,1015.89
2024-02-29T04:40:59.246Z,1015.91
2024-02-29T04:41:58.924Z,1015.88
2024-02-29T04:42:58.930Z,1015.87
2024-02-29T04:43:58.852Z,1015.90
2024-02-29T04:44:58.808Z,1015.79
2024-02-29T04:45:59.237Z,1015.76
2024-02-29T04:46:58.731Z,1015.79
2024-02-29T04:47:58.727Z,1015.81
2024-02-29T04:48:58.711Z,1015.79
2024-02-29T04:49:58.606Z,1015.82
2024-02-29T04:50:58.835Z,1015.80
2024-02-29T04:51:58.567Z,1015.83
2024-02-29T04:52:58.487Z,1015.84
2024-02-29T04:53:58.444Z,1015.79
2024-02-29T04:54:58.468Z,1015.81
2024-02-29T04:55:58.556Z,1015.78
2024-02-29T04:56:58.327Z,1015.86
2024-02-29T04:57:58.319Z,1015.89
2024-02-29T04:58:58.258Z,1015.84
2024-02-29T04:59:58.262Z,1015.88
2024-02-29T05:00:58.234Z,1015.85
2024-02-29T05:01:58.162Z,1015.90
2024-02-29T05:02:58.089Z,1015.86
2024-02-29T05:03:58.194Z,1015.86
2024-02-29T05:04:58.077Z,1015.87
2024-02-29T05:05:57.967Z,1015.87
2024-02-29T05:06:57.959Z,1015.91
2024-02-29T05:07:57.897Z,1015.88
2024-02-29T05:08:57.860Z,1015.88
2024-02-29T05:09:57.852Z,1015.85
2024-02-29T05:10:57.782Z,1015.86
2024-02-29T05:11:57.761Z,1015.86
2024-02-29T05:12:57.730Z,1015.83
2024-02-29T05:13:57.653Z,1015.83
2024-02-29T05:14:57.634Z,1015.84
2024-02-29T05:15:57.605Z,1015.87
2024-02-29T05:16:57.541Z,1015.84
2024-02-29T05:17:57.506Z,1015.84
2024-02-29T05:18:57.472Z,1015.84
2024-02-29T05:19:57.451Z,1015.81
2024-02-29T05:20:57.388Z,1015.82
2024-02-29T05:21:57.437Z,1015.86
2024-02-29T05:22:57.291Z,1015.80
2024-02-29T05:23:57.249Z,1015.80
2024-02-29T05:24:57.303Z,1015.77
2024-02-29T05:25:57.166Z,1015.79
2024-02-29T05:26:57.137Z,1015.75
2024-02-29T05:27:57.121Z,1015.76
2024-02-29T05:28:57.064Z,1015.73
2024-02-29T05:29:57.049Z,1015.74
2024-02-29T05:30:57.043Z,1015.71
2024-02-29T05:31:56.990Z,1015.72
2024-02-29T05:32:57.016Z,1015.72
2024-02-29T05:33:56.953Z,1015.67
2024-02-29T05:34:56.914Z,1015.70
2024-02-29T05:35:56.794Z,1015.70
2024-02-29T05:36:56.771Z,1015.68
2024-02-29T05:37:59.457Z,1015.70
2024-02-29T05:38:56.672Z,1015.67
2024-02-29T05:39:56.683Z,1015.68
2024-02-29T05:40:56.620Z,1015.70
2024-02-29T05:41:56.536Z,1015.66
2024-02-29T05:42:56.522Z,1015.65
2024-02-29T05:43:56.448Z,1015.63
2024-02-29T05:44:56.440Z,1015.60
2024-02-29T05:45:56.454Z,1015.58
2024-02-29T05:46:56.356Z,1015.58
2024-02-29T05:47:56.309Z,1015.58
2024-02-29T05:48:56.305Z,1015.58
2024-02-29T05:49:56.335Z,1015.58
2024-02-29T05:50:56.193Z,1015.58
2024-02-29T05:51:56.147Z,1015.55
2024-02-29T05:52:56.107Z,1015.57
2024-02-29T05:53:56.120Z,1015.59
2024-02-29T05:54:56.102Z,1015.54
2024-02-29T05:55:55.975Z,1015.55
2024-02-29T05:56:55.943Z,1015.58
2024-02-29T05:57:55.975Z,1015.54
2024-02-29T05:58:55.868Z,1015.53
2024-02-29T05:59:56.046Z,1015.59
2024-02-29T06:00:55.944Z,1015.52
2024-02-29T06:01:55.889Z,1015.56
2024-02-29T06:02:55.754Z,1015.58
2024-02-29T06:03:55.739Z,1015.54
2024-02-29T06:04:55.612Z,1015.54
2024-02-29T06:05:55.580Z,1015.55
2024-02-29T06:06:55.579Z,1015.55
2024-02-29T06:07:55.494Z,1015.56
2024-02-29T06:08:55.732Z,1015.60
2024-02-29T06:09:55.455Z,1015.57
2024-02-29T06:10:55.401Z,1015.56
2024-02-29T06:11:55.341Z,1015.55
2024-02-29T06:12:55.351Z,1015.58
2024-02-29T06:13:55.527Z,1015.53
2024-02-29T06:14:55.216Z,1015.51
2024-02-29T06:15:55.204Z,1015.53
2024-02-29T06:16:55.136Z,1015.56
2024-02-29T06:17:55.117Z,1015.52
2024-02-29T06:18:55.394Z,1015.54
2024-02-29T06:19:55.013Z,1015.54
2024-02-29T06:20:54.974Z,1015.53
2024-02-29T06:21:55.059Z,1015.54
2024-02-29T06:22:54.902Z,1015.51
2024-02-29T06:23:54.882Z,1015.52
2024-02-29T06:24:54.893Z,1015.49
2024-02-29T06:25:54.777Z,1015.49
2024-02-29T06:26:57.948Z,1015.48
2024-02-29T06:27:54.758Z,1015.47
2024-02-29T06:28:54.933Z,1015.51
2024-02-29T06:29:54.624Z,1015.53
2024-02-29T06:30:54.636Z,1015.51
2024-02-29T06:31:54.550Z,1015.52
2024-02-29T06:32:54.529Z,1015.50
2024-02-29T06:33:54.841Z,1015.47
2024-02-29T06:34:54.424Z,1015.45
2024-02-29T06:35:54.390Z,1015.47
2024-02-29T06:36:54.391Z,1015.46
2024-02-29T06:37:54.364Z,1015.44
2024-02-29T06:38:54.537Z,1015.47
2024-02-29T06:39:54.244Z,1015.45
2024-02-29T06:40:54.184Z,1015.45
2024-02-29T06:41:54.149Z,1015.47
2024-02-29T06:42:54.123Z,1015.42
2024-02-29T06:43:54.439Z,1015.43
2024-02-29T06:44:54.062Z,1015.42
2024-02-29T06:45:54.040Z,1015.41
2024-02-29T06:46:54.012Z,1015.38
2024-02-29T06:47:53.988Z,1015.39
2024-02-29T06:48:54.189Z,1015.44
2024-02-29T06:49:53.828Z,1015.37
2024-02-29T06:50:53.789Z,1015.40
2024-02-29T06:51:58.462Z,1015.41
2024-02-29T06:52:55.057Z,1015.34
2024-02-29T06:53:53.678Z,1015.31
2024-02-29T06:54:53.649Z,1015.32
2024-02-29T06:55:53.602Z,1015.35
2024-02-29T06:56:53.565Z,1015.31
2024-02-29T06:57:53.818Z,1015.28
2024-02-29T06:58:53.475Z,1015.39
2024-02-29T06:59:53.908Z,1015.33
2024-02-29T07:00:53.471Z,1015.37
2024-02-29T07:01:53.465Z,1015.31
2024-02-29T07:02:53.320Z,1015.34
2024-02-29T07:03:53.635Z,1015.31
2024-02-29T07:04:53.245Z,1015.32
2024-02-29T07:05:53.206Z,1015.32
2024-02-29T07:06:53.179Z,1015.30
2024-02-29T07:07:53.406Z,1015.34
2024-02-29T07:08:53.084Z,1015.29
2024-02-29T07:09:53.158Z,1015.33
2024-02-29T07:10:53.022Z,1015.29
2024-02-29T07:11:52.963Z,1015.29
2024-02-29T07:12:53.233Z,1015.27
2024-02-29T07:13:52.892Z,1015.30
2024-02-29T07:14:52.849Z,1015.31
2024-02-29T07:15:52.862Z,1015.27
2024-02-29T07:16:52.803Z,1015.28
2024-02-29T07:17:53.082Z,1015.27
2024-02-29T07:18:52.724Z,1015.29
2024-02-29T07:19:53.454Z,1015.29
2024-02-29T07:20:52.614Z,1015.28
2024-02-29T07:21:52.645Z,1015.27
2024-02-29T07:22:52.626Z,1015.32
2024-02-29T07:23:52.497Z,1015.29
2024-02-29T07:24:52.487Z,1015.25
2024-02-29T07:25:52.425Z,1015.26
2024-02-29T07:26:52.443Z,1015.28
2024-02-29T07:27:52.443Z,1015.25
2024-02-29T07:28:52.306Z,1015.22
2024-02-29T07:29:52.265Z,1015.19
2024-02-29T07:30:52.310Z,1015.21
2024-02-29T07:31:55.015Z,1015.20
2024-02-29T07:32:52.209Z,1015.23
2024-02-29T07:33:52.123Z,1015.24
2024-02-29T07:34:52.070Z,1015.24
2024-02-29T07:35:52.047Z,1015.21
2024-02-29T07:36:52.044Z,1015.23
2024-02-29T07:37:54.706Z,1015.22
2024-02-29T07:38:51.918Z,1015.21
2024-02-29T07:39:51.904Z,1015.30
2024-02-29T07:40:51.884Z,1015.25
2024-02-29T07:41:51.886Z,1015.27
2024-02-29T07:42:52.063Z,1015.25
2024-02-29T07:43:51.732Z,1015.30
2024-02-29T07:44:51.690Z,1015.29
2024-02-29T07:45:51.726Z,1015.25
2024-02-29T07:46:51.612Z,1015.28
2024-02-29T07:47:51.894Z,1015.24
2024-02-29T07:48:51.585Z,1015.29
2024-02-29T07:49:51.535Z,1015.27
2024-02-29T07:50:52.668Z,1015.30
2024-02-29T07:51:51.443Z,1015.29
2024-02-29T07:52:51.663Z,1015.28
2024-02-29T07:53:51.345Z,1015.27
2024-02-29T07:54:51.369Z,1015.29
2024-02-29T07:55:51.273Z,1015.26
2024-02-29T07:56:51.235Z,1015.28
2024-02-29T07:57:51.495Z,1015.25
2024-02-29T07:58:51.172Z,1015.28
2024-02-29T07:59:51.121Z,1015.24
2024-02-29T08:00:51.161Z,1015.23
2024-02-29T08:01:51.186Z,1015.28
2024-02-29T08:02:51.019Z,1015.26
2024-02-29T08:03:51.043Z,1015.26
2024-02-29T08:04:50.987Z,1015.31
2024-02-29T08:05:50.893Z,1015.26
2024-02-29T08:06:50.867Z,1015.28
2024-02-29T08:07:50.824Z,1015.24
2024-02-29T08:08:50.840Z,1015.26
2024-02-29T08:09:50.792Z,1015.28
2024-02-29T08:10:50.737Z,1015.21
2024-02-29T08:11:50.721Z,1015.23
2024-02-29T08:12:50.657Z,1015.26
2024-02-29T08:13:50.734Z,1015.24
2024-02-29T08:14:50.563Z,1015.24
2024-02-29T08:15:50.572Z,1015.24
2024-02-29T08:16:50.476Z,1015.18
2024-02-29T08:17:50.466Z,1015.18
2024-02-29T08:18:50.484Z,1015.14
2024-02-29T08:19:50.366Z,1015.14
2024-02-29T08:20:50.327Z,1015.15
2024-02-29T08:21:50.368Z,1015.16
2024-02-29T08:22:50.251Z,1015.13
2024-02-29T08:23:50.237Z,1015.10
2024-02-29T08:24:50.197Z,1015.12
2024-02-29T08:25:50.164Z,1015.08
2024-02-29T08:26:50.107Z,1015.08
2024-02-29T08:27:50.113Z,1015.08
2024-02-29T08:28:50.058Z,1015.09
2024-02-29T08:29:50.024Z,1015.09
2024-02-29T08:30:50.024Z,1015.04
2024-02-29T08:31:49.949Z,1015.05
2024-02-29T08:32:50.102Z,1015.08
2024-02-29T08:33:50.217Z,1015.01
2024-02-29T08:34:49.797Z,1015.01
2024-02-29T08:35:49.764Z,1015.01
2024-02-29T08:36:49.730Z,1014.99
2024-02-29T08:37:49.692Z,1015.00
2024-02-29T08:38:49.674Z,1014.92
2024-02-29T08:39:49.712Z,1014.93
2024-02-29T08:40:49.578Z,1014.96
2024-02-29T08:41:49.539Z,1014.95
2024-02-29T08:42:49.531Z,1014.94
2024-02-29T08:43:49.760Z,1014.91
2024-02-29T08:44:49.425Z,1014.97
2024-02-29T08:45:49.446Z,1014.93
2024-02-29T08:46:49.354Z,1014.96
2024-02-29T08:47:49.321Z,1014.96
2024-02-29T08:48:49.572Z,1014.94
2024-02-29T08:49:49.236Z,1014.91
2024-02-29T08:50:49.194Z,1014.92
2024-02-29T08:51:49.235Z,1014.89
2024-02-29T08:52:49.130Z,1014.90
2024-02-29T08:53:49.113Z,1014.87
2024-02-29T08:54:49.093Z,1014.85
2024-02-29T08:55:49.019Z,1014.85
2024-02-29T08:56:48.979Z,1014.83
2024-02-29T08:57:48.961Z,1014.84
2024-02-29T08:58:48.945Z,1014.82
2024-02-29T08:59:49.146Z,1014.81
2024-02-29T09:00:48.881Z,1014.82
2024-02-29T09:01:49.407Z,1014.78
2024-02-29T09:02:48.753Z,1014.78
2024-02-29T09:03:49.057Z,1014.76
2024-02-29T09:04:48.693Z,1014.73
2024-02-29T09:05:48.643Z,1014.75
2024-02-29T09:06:48.616Z,1014.73
2024-02-29T09:07:48.570Z,1014.71
2024-02-29T09:08:48.807Z,1014.76
2024-02-29T09:09:48.553Z,1014.76
2024-02-29T09:10:48.456Z,1014.75
2024-02-29T09:11:48.418Z,1014.71
2024-02-29T09:12:48.461Z,1014.73
2024-02-29T09:13:48.669Z,1014.72
2024-02-29T09:14:48.331Z,1014.74
2024-02-29T09:15:48.306Z,1014.69
2024-02-29T09:16:48.266Z,1014.68
2024-02-29T09:17:48.330Z,1014.70
2024-02-29T09:18:48.283Z,1014.64
2024-02-29T09:19:48.124Z,1014.66
2024-02-29T09:20:48.083Z,1014.64
2024-02-29T09:21:48.088Z,1014.68
2024-02-29T09:22:48.027Z,1014.67
2024-02-29T09:23:48.973Z,1014.64
2024-02-29T09:24:47.997Z,1014.66
2024-02-29T09:25:47.903Z,1014.64
2024-02-29T09:26:47.937Z,1014.63
2024-02-29T09:27:47.858Z,1014.59
2024-02-29T09:28:47.817Z,1014.61
2024-02-29T09:29:47.776Z,1014.54
2024-02-29T09:30:47.748Z,1014.60
2024-02-29T09:31:47.691Z,1014.58
2024-02-29T09:32:47.669Z,1014.60
2024-02-29T09:33:47.975Z,1014.60
2024-02-29T09:34:50.969Z,1014.60
2024-02-29T09:35:55.581Z,1014.57
2024-02-29T09:36:47.573Z,1014.53
2024-02-29T09:37:47.491Z,1014.54
2024-02-29T09:38:47.709Z,1014.52
2024-02-29T09:39:47.414Z,1014.51
2024-02-29T09:40:52.490Z,1014.52
2024-02-29T09:42:07.929Z,1014.50
2024-02-29T09:42:47.312Z,1014.50
2024-02-29T09:43:47.544Z,1014.52
2024-02-29T09:44:47.225Z,1014.53
2024-02-29T09:45:47.197Z,1014.59
2024-02-29T09:46:47.160Z,1014.58
2024-02-29T09:47:47.113Z,1014.55
2024-02-29T09:48:47.363Z,1014.52
2024-02-29T09:49:49.429Z,1014.53
2024-02-29T09:50:46.987Z,1014.54
2024-02-29T09:51:47.022Z,1014.51
2024-02-29T09:52:46.927Z,1014.51
2024-02-29T09:53:47.353Z,1014.50
2024-02-29T09:54:46.977Z,1014.46
2024-02-29T09:55:46.806Z,1014.45
2024-02-29T09:56:46.781Z,1014.45
2024-02-29T09:57:46.793Z,1014.39
2024-02-29T09:58:46.771Z,1014.40
2024-02-29T09:59:46.694Z,1014.41
2024-02-29T10:00:46.687Z,1014.45
2024-02-29T10:01:46.665Z,1014.39
2024-02-29T10:02:46.554Z,1014.40
2024-02-29T10:03:46.566Z,1014.39
2024-02-29T10:04:47.087Z,1014.39
2024-02-29T10:05:46.446Z,1014.41
2024-02-29T10:06:46.472Z,1014.40
2024-02-29T10:07:46.379Z,1014.42
2024-02-29T10:08:46.692Z,1014.42
2024-02-29T10:09:46.334Z,1014.43
2024-02-29T10:10:46.310Z,1014.43
2024-02-29T10:11:46.247Z,1014.42
2024-02-29T10:12:47.115Z,1014.41
2024-02-29T10:13:46.203Z,1014.38
2024-02-29T10:14:46.132Z,1014.37
2024-02-29T10:15:46.121Z,1014.37
2024-02-29T10:16:46.056Z,1014.31
2024-02-29T10:17:46.767Z,1014.36
2024-02-29T10:18:46.271Z,1014.37
2024-02-29T10:19:45.954Z,1014.34
2024-02-29T10:20:45.909Z,1014.30
2024-02-29T10:21:45.887Z,1014.29
2024-02-29T10:22:48.450Z,1014.33
2024-02-29T10:23:45.836Z,1014.30
2024-02-29T10:24:45.790Z,1014.34
2024-02-29T10:25:45.818Z,1014.34
2024-02-29T10:26:45.697Z,1014.32
2024-02-29T10:27:45.696Z,1014.35
2024-02-29T10:28:45.662Z,1014.32
2024-02-29T10:29:45.592Z,1014.32
2024-02-29T10:30:45.684Z,1014.34
2024-02-29T10:31:45.534Z,1014.33
2024-02-29T10:32:45.527Z,1014.32
2024-02-29T10:33:45.584Z,1014.26
2024-02-29T10:34:47.286Z,1014.25
2024-02-29T10:35:45.382Z,1014.27
2024-02-29T10:36:45.406Z,1014.24
2024-02-29T10:37:45.309Z,1014.18
2024-02-29T10:38:45.555Z,1014.16
2024-02-29T10:39:45.282Z,1014.18
2024-02-29T10:40:45.195Z,1014.14
2024-02-29T10:41:45.165Z,1014.13
2024-02-29T10:42:45.163Z,1014.12
2024-02-29T10:43:45.110Z,1014.08
2024-02-29T10:44:45.088Z,1014.08
2024-02-29T10:45:45.072Z,1014.06
2024-02-29T10:46:44.992Z,1014.08
2024-02-29T10:47:44.969Z,1014.05
2024-02-29T10:48:44.964Z,1014.05
2024-02-29T10:49:45.166Z,1014.03
2024-02-29T10:50:44.854Z,1014.01
2024-02-29T10:51:44.875Z,1014.02
2024-02-29T10:52:44.775Z,1014.01
2024-02-29T10:53:45.057Z,1014.01
2024-02-29T10:54:44.733Z,1013.96
2024-02-29T10:55:44.684Z,1013.95
2024-02-29T10:56:46.222Z,1013.96
2024-02-29T10:57:44.624Z,1013.92
2024-02-29T10:58:44.600Z,1013.90
2024-02-29T10:59:44.531Z,1013.93
2024-02-29T11:00:44.699Z,1013.93
2024-02-29T11:01:44.629Z,1013.87
2024-02-29T11:02:44.426Z,1013.89
2024-02-29T11:03:44.463Z,1013.87
2024-02-29T11:04:44.640Z,1013.87
2024-02-29T11:05:44.323Z,1013.82
2024-02-29T11:06:44.447Z,1013.79
2024-02-29T11:07:44.275Z,1013.78
2024-02-29T11:08:44.493Z,1013.76
2024-02-29T11:09:44.299Z,1013.74
2024-02-29T11:10:44.173Z,1013.74
2024-02-29T11:11:45.033Z,1013.68
2024-02-29T11:12:44.116Z,1013.68
2024-02-29T11:13:44.379Z,1013.64
2024-02-29T11:14:44.008Z,1013.66
2024-02-29T11:15:44.013Z,1013.63
2024-02-29T11:16:43.933Z,1013.58
2024-02-29T11:17:43.924Z,1013.56
2024-02-29T11:18:43.899Z,1013.58
2024-02-29T11:19:51.763Z,1013.54
2024-02-29T11:20:43.803Z,1013.48
2024-02-29T11:21:43.792Z,1013.45
2024-02-29T11:22:43.737Z,1013.38
2024-02-29T11:23:43.703Z,1013.39
2024-02-29T11:24:44.006Z,1013.38
2024-02-29T11:25:43.764Z,1013.36
2024-02-29T11:26:43.601Z,1013.35
2024-02-29T11:27:43.597Z,1013.36
2024-02-29T11:28:43.527Z,1013.32
2024-02-29T11:29:43.517Z,1013.36
2024-02-29T11:30:43.477Z,1013.22
2024-02-29T11:31:43.423Z,1013.24
2024-02-29T11:32:43.487Z,1013.20
2024-02-29T11:33:43.409Z,1013.17
2024-02-29T11:34:43.593Z,1013.21
2024-02-29T11:35:43.322Z,1013.17
2024-02-29T11:36:43.273Z,1013.14
2024-02-29T11:37:43.269Z,1013.15
2024-02-29T11:38:43.180Z,1013.20
2024-02-29T11:39:43.483Z,1013.10
2024-02-29T11:40:43.123Z,1013.10
2024-02-29T11:41:43.081Z,1013.09
2024-02-29T11:42:43.057Z,1013.07
2024-02-29T11:43:43.008Z,1013.03
2024-02-29T11:44:43.248Z,1013.04
2024-02-29T11:45:42.960Z,1012.98
2024-02-29T11:46:42.904Z,1012.99
2024-02-29T11:47:42.870Z,1013.01
2024-02-29T11:48:43.185Z,1012.97
2024-02-29T11:49:42.801Z,1012.96
2024-02-29T11:50:42.764Z,1012.90
2024-02-29T11:51:42.758Z,1012.89
2024-02-29T11:52:42.698Z,1012.89
2024-02-29T11:53:43.602Z,1012.85
2024-02-29T11:54:42.669Z,1012.88
2024-02-29T11:55:42.610Z,1012.89
2024-02-29T11:56:42.560Z,1012.85
2024-02-29T11:57:42.552Z,1012.83
2024-02-29T11:58:42.786Z,1012.83
2024-02-29T11:59:42.475Z,1012.78
2024-02-29T12:00:42.471Z,1012.78
2024-02-29T12:01:42.488Z,1012.77
2024-02-29T12:02:42.363Z,1012.75
2024-02-29T12:03:42.449Z,1012.75
2024-02-29T12:04:42.305Z,1012.74